Time;durP1;ratioP1;P1;durP2;ratioP2;P2;SDS_P1;SDS_P2;PMS_P1;PMS_P2;Temp;Humidity;BMP_temperature;BMP_pressure;BME280_temperature;BME280_humidity;BME280_pressure;Samples;Min_cycle;Max_cycle;Signal;HPM_P1;HPM_P2
2024/04/13 00:02:02;;;;;;;10.17;7.10;;;14.60;99.90;;;;;;5417840;26;20227;-64
2024/04/13 00:04:31;;;;;;;10.90;7.80;;;14.60;99.90;;;;;;5417914;26;20978;-64
2024/04/13 00:06:56;;;;;;;8.63;7.73;;;14.60;99.90;;;;;;5417692;26;20567;-65
2024/04/13 00:09:25;;;;;;;9.93;7.27;;;14.50;99.90;;;;;;5417364;26;20461;-64
2024/04/13 00:11:51;;;;;;;11.10;7.53;;;14.50;99.90;;;;;;5417209;26;20329;-64
2024/04/13 00:14:19;;;;;;;9.90;7.10;;;14.50;99.90;;;;;;5417349;26;20469;-64
2024/04/13 00:16:45;;;;;;;9.97;8.27;;;14.50;99.90;;;;;;5417648;26;20230;-62
2024/04/13 00:19:16;;;;;;;9.23;6.70;;;14.40;99.90;;;;;;5417337;26;20846;-64
2024/04/13 00:21:42;;;;;;;8.90;7.30;;;14.40;99.90;;;;;;5417553;26;20563;-65
2024/04/13 00:24:13;;;;;;;8.20;7.40;;;14.30;99.90;;;;;;5417085;26;20619;-65
2024/04/13 00:26:38;;;;;;;9.93;7.70;;;14.40;99.90;;;;;;5416987;26;20909;-65
2024/04/13 00:29:07;;;;;;;8.67;7.77;;;14.30;99.90;;;;;;5418496;26;20445;-64
2024/04/13 00:31:33;;;;;;;8.23;7.17;;;14.30;99.90;;;;;;5420942;26;20215;-64
2024/04/13 00:34:04;;;;;;;11.43;8.50;;;14.30;99.90;;;;;;5420569;26;20453;-64
2024/04/13 00:36:35;;;;;;;9.73;7.80;;;14.30;99.90;;;;;;5420249;26;20437;-64
2024/04/13 00:39:05;;;;;;;10.20;7.80;;;14.30;99.90;;;;;;5421200;26;20479;-64
2024/04/13 00:41:31;;;;;;;8.70;7.80;;;14.20;99.90;;;;;;5420674;26;20448;-64
2024/04/13 00:44:00;;;;;;;11.13;9.30;;;14.20;99.90;;;;;;5420064;26;20468;-64
2024/04/13 00:46:31;;;;;;;8.53;7.60;;;14.20;99.90;;;;;;5420449;26;20488;-64
2024/04/13 00:49:00;;;;;;;9.63;8.20;;;14.20;99.90;;;;;;5420789;26;20913;-64
2024/04/13 00:51:29;;;;;;;8.67;7.80;;;14.10;99.90;;;;;;5420651;26;20564;-63
2024/04/13 00:54:00;;;;;;;9.70;7.77;;;14.10;99.90;;;;;;5421780;26;20517;-64
2024/04/13 00:56:26;;;;;;;11.03;8.13;;;14.10;99.90;;;;;;5421723;26;20567;-64
2024/04/13 00:58:56;;;;;;;8.60;7.70;;;14.10;99.90;;;;;;5420373;26;20974;-65
2024/04/13 01:01:24;;;;;;;14.60;8.10;;;14.10;99.90;;;;;;5419907;26;20441;-66
2024/04/13 01:03:53;;;;;;;9.70;8.23;;;14.00;99.90;;;;;;5420052;26;20513;-64
2024/04/13 01:06:19;;;;;;;10.67;8.67;;;14.00;99.90;;;;;;5419812;26;20464;-65
2024/04/13 01:08:50;;;;;;;11.17;8.20;;;14.00;99.90;;;;;;5419874;26;20542;-64
2024/04/13 01:11:18;;;;;;;9.93;7.83;;;14.00;99.90;;;;;;5420237;26;20465;-66
2024/04/13 01:13:47;;;;;;;11.37;7.80;;;14.00;99.90;;;;;;5419740;26;20476;-65
2024/04/13 01:16:14;;;;;;;13.47;8.77;;;14.00;99.90;;;;;;5419187;26;20894;-65
2024/04/13 01:18:43;;;;;;;10.13;8.27;;;13.90;99.90;;;;;;5419600;26;20570;-64
2024/04/13 01:21:09;;;;;;;8.30;7.47;;;13.90;99.90;;;;;;5419614;26;21050;-64
2024/04/13 01:23:46;;;;;;;15.37;8.10;;;13.90;99.90;;;;;;5419356;26;20520;-65
2024/04/13 01:26:15;;;;;;;9.80;8.37;;;13.90;99.90;;;;;;5419512;26;20461;-64
2024/04/13 01:28:43;;;;;;;8.90;7.93;;;13.90;99.90;;;;;;5419287;26;20444;-64
2024/04/13 01:31:10;;;;;;;9.50;8.03;;;13.80;99.90;;;;;;5419646;26;20579;-64
2024/04/13 01:33:39;;;;;;;10.53;7.87;;;13.80;99.90;;;;;;5419120;26;20532;-64
2024/04/13 01:36:06;;;;;;;12.70;9.23;;;13.80;99.90;;;;;;5419058;26;20925;-64
2024/04/13 01:38:34;;;;;;;9.43;7.20;;;13.80;99.90;;;;;;5419480;26;20452;-64
2024/04/13 01:41:00;;;;;;;10.60;8.40;;;13.80;99.90;;;;;;5418642;26;20469;-65
2024/04/13 01:43:32;;;;;;;14.20;8.73;;;13.70;99.90;;;;;;5419537;26;20565;-64
2024/04/13 01:45:58;;;;;;;10.37;7.30;;;13.70;99.90;;;;;;5420063;26;20211;-64
2024/04/13 01:48:27;;;;;;;11.20;8.40;;;13.70;99.90;;;;;;5419444;26;20522;-64
2024/04/13 01:50:53;;;;;;;14.13;9.63;;;13.60;99.90;;;;;;5419496;26;21002;-65
2024/04/13 01:53:21;;;;;;;11.10;8.67;;;13.60;99.90;;;;;;5419538;26;20501;-63
2024/04/13 01:55:47;;;;;;;11.53;8.97;;;13.70;99.90;;;;;;5418860;26;20231;-65
2024/04/13 01:58:16;;;;;;;10.17;9.17;;;13.60;99.90;;;;;;5419271;26;20456;-64
2024/04/13 02:00:44;;;;;;;11.67;10.37;;;13.60;99.90;;;;;;5419430;26;20350;-64
2024/04/13 02:03:12;;;;;;;13.03;8.93;;;13.60;99.90;;;;;;5444185;21;20552;-60
2024/04/13 02:05:38;;;;;;;16.70;10.93;;;13.60;99.90;;;;;;5419253;26;21112;-61
2024/04/13 02:08:07;;;;;;;10.73;9.13;;;13.60;99.90;;;;;;5419233;26;20465;-61
2024/04/13 02:10:34;;;;;;;10.70;8.73;;;13.60;99.90;;;;;;5419268;26;20219;-61
2024/04/13 02:13:03;;;;;;;10.63;8.83;;;13.60;99.90;;;;;;5419054;26;21020;-61
2024/04/13 02:15:29;;;;;;;15.30;10.00;;;13.50;99.90;;;;;;5418925;26;20445;-61
2024/04/13 02:18:00;;;;;;;13.80;9.97;;;13.40;99.90;;;;;;5418962;26;20921;-61
2024/04/13 02:20:26;;;;;;;13.30;9.87;;;13.40;99.90;;;;;;5419118;26;20588;-61
2024/04/13 02:22:54;;;;;;;17.23;10.50;;;13.40;99.90;;;;;;5419089;26;20477;-61
2024/04/13 02:25:20;;;;;;;12.30;11.00;;;13.40;99.90;;;;;;5418952;26;20312;-61
2024/04/13 02:27:48;;;;;;;12.57;11.27;;;13.40;99.90;;;;;;5419023;26;20460;-60
2024/04/13 02:30:15;;;;;;;13.20;11.20;;;13.40;99.90;;;;;;5425036;26;20646;-61
2024/04/13 02:32:43;;;;;;;14.37;11.33;;;13.50;99.90;;;;;;5426820;26;20891;-62
2024/04/13 02:35:11;;;;;;;15.07;11.97;;;13.50;99.90;;;;;;5422730;26;20568;-61
2024/04/13 02:37:40;;;;;;;15.93;11.47;;;13.50;99.90;;;;;;5422753;26;20505;-61
2024/04/13 02:40:08;;;;;;;14.50;11.40;;;13.50;99.90;;;;;;5419035;26;20449;-61
2024/04/13 02:42:37;;;;;;;17.63;12.60;;;13.50;99.90;;;;;;5419028;26;20962;-62
2024/04/13 02:45:04;;;;;;;14.70;10.70;;;13.50;99.90;;;;;;5419005;26;20524;-61
2024/04/13 02:47:32;;;;;;;17.07;11.87;;;13.50;99.90;;;;;;5419169;26;20513;-61
2024/04/13 02:49:58;;;;;;;13.83;11.53;;;13.60;99.90;;;;;;5419129;26;20440;-61
2024/04/13 02:52:30;;;;;;;18.63;11.17;;;13.60;99.90;;;;;;5417600;26;20858;-61
2024/04/13 02:54:56;;;;;;;13.80;11.03;;;13.60;99.90;;;;;;5422099;26;20445;-61
2024/04/13 02:57:26;;;;;;;12.77;10.50;;;13.70;99.90;;;;;;5426559;26;20517;-61
2024/04/13 02:59:52;;;;;;;12.47;10.13;;;13.70;99.90;;;;;;5427960;26;20636;-61
2024/04/13 03:02:21;;;;;;;13.33;11.40;;;13.70;99.90;;;;;;5425450;26;20465;-61
2024/04/13 03:04:50;;;;;;;12.90;10.53;;;13.70;99.90;;;;;;5421917;26;20457;-61
2024/04/13 03:07:19;;;;;;;13.83;9.93;;;13.70;99.90;;;;;;5421052;26;20500;-60
2024/04/13 03:09:48;;;;;;;12.37;10.23;;;13.70;99.90;;;;;;5421827;26;21038;-61
2024/04/13 03:12:17;;;;;;;16.50;11.07;;;13.70;99.90;;;;;;5422496;26;20493;-60
2024/04/13 03:14:43;;;;;;;14.50;10.77;;;13.70;99.90;;;;;;5424077;26;20513;-60
2024/04/13 03:17:12;;;;;;;11.80;9.87;;;13.60;99.90;;;;;;5424890;26;20492;-60
2024/04/13 03:19:38;;;;;;;13.37;11.33;;;13.60;99.90;;;;;;5423235;26;20519;-60
2024/04/13 03:22:07;;;;;;;17.63;9.77;;;13.60;99.90;;;;;;5422106;26;20457;-60
2024/04/13 03:24:33;;;;;;;12.33;10.00;;;13.50;99.90;;;;;;5422826;26;20898;-60
2024/04/13 03:27:05;;;;;;;11.60;9.47;;;13.50;99.90;;;;;;5423980;26;20563;-60
2024/04/13 03:29:30;;;;;;;16.57;10.20;;;13.50;99.90;;;;;;5426085;26;20441;-60
2024/04/13 03:31:59;;;;;;;10.40;8.80;;;13.40;99.90;;;;;;5428678;26;20512;-61
2024/04/13 03:34:26;;;;;;;17.40;11.00;;;13.40;99.90;;;;;;5428249;26;20275;-60
2024/04/13 03:36:54;;;;;;;12.17;9.37;;;13.40;99.90;;;;;;5427722;26;20449;-61
2024/04/13 03:39:25;;;;;;;11.60;9.40;;;13.30;99.90;;;;;;5425666;26;20553;-60
2024/04/13 03:41:54;;;;;;;12.77;9.17;;;13.30;99.90;;;;;;5426437;26;20497;-61
2024/04/13 03:44:22;;;;;;;11.30;9.43;;;13.30;99.90;;;;;;5429165;26;20453;-60
2024/04/13 03:46:50;;;;;;;12.53;10.30;;;13.30;99.90;;;;;;5427571;26;20461;-60
2024/04/13 03:49:16;;;;;;;11.10;9.40;;;13.30;99.90;;;;;;5428784;26;20574;-61
2024/04/13 03:51:45;;;;;;;12.33;8.67;;;13.30;99.90;;;;;;5427717;26;20449;-60
2024/04/13 03:54:11;;;;;;;10.50;9.13;;;13.30;99.90;;;;;;5428347;26;20227;-60
2024/04/13 03:56:39;;;;;;;12.67;8.60;;;13.20;99.90;;;;;;5424340;26;20601;-61
2024/04/13 03:59:05;;;;;;;13.67;8.90;;;13.20;99.90;;;;;;5427447;26;20234;-61
2024/04/13 04:01:36;;;;;;;9.70;8.70;;;13.20;99.90;;;;;;5428992;26;20542;-60
2024/04/13 04:04:03;;;;;;;14.37;8.63;;;13.20;99.90;;;;;;5426376;26;20461;-61
2024/04/13 04:06:31;;;;;;;11.30;10.07;;;13.20;99.90;;;;;;5427285;26;20449;-60
2024/04/13 04:08:57;;;;;;;10.33;8.40;;;13.20;99.90;;;;;;5423083;26;20445;-60
2024/04/13 04:13:34;;;;;;;10.40;8.77;;;13.10;99.90;;;;;;5518931;25;20572;-61
2024/04/13 04:16:00;;;;;;;11.50;9.23;;;13.10;99.90;;;;;;5481317;26;20542;-61
2024/04/13 04:18:28;;;;;;;11.57;8.53;;;13.10;99.90;;;;;;5478228;26;20451;-61
2024/04/13 04:20:54;;;;;;;9.50;7.73;;;13.10;99.90;;;;;;5480563;26;20268;-61
2024/04/13 04:23:22;;;;;;;12.27;8.60;;;13.10;99.90;;;;;;5482512;26;20536;-61
2024/04/13 04:25:48;;;;;;;11.60;8.50;;;13.10;99.90;;;;;;5482613;26;20288;-61
2024/04/13 04:28:17;;;;;;;13.33;8.90;;;13.10;99.90;;;;;;5484357;26;20495;-61
2024/04/13 04:30:47;;;;;;;12.73;8.20;;;13.10;99.90;;;;;;5484922;26;20451;-61
2024/04/13 04:33:16;;;;;;;9.40;8.40;;;13.10;99.90;;;;;;5484001;26;20470;-61
2024/04/13 04:35:42;;;;;;;8.43;7.30;;;13.20;99.90;;;;;;5484404;26;20538;-61
2024/04/13 04:38:12;;;;;;;11.10;7.40;;;13.20;99.90;;;;;;5482341;26;20447;-61
2024/04/13 04:40:38;;;;;;;10.43;8.67;;;13.10;99.90;;;;;;5483349;26;20213;-61
2024/04/13 04:43:06;;;;;;;12.00;7.47;;;13.10;99.90;;;;;;5482511;26;21060;-59
2024/04/13 04:45:34;;;;;;;14.33;9.00;;;13.10;99.90;;;;;;5481086;26;20443;-62
2024/04/13 04:48:08;;;;;;;8.83;7.93;;;13.20;99.90;;;;;;5483584;26;20601;-61
2024/04/13 04:50:34;;;;;;;13.23;8.17;;;13.20;99.90;;;;;;5481779;26;20466;-62
2024/04/13 04:53:03;;;;;;;11.03;8.13;;;13.20;99.90;;;;;;5474776;26;20551;-60
2024/04/13 04:55:29;;;;;;;13.03;8.07;;;13.20;99.90;;;;;;5475821;26;20248;-60
2024/04/13 04:57:58;;;;;;;13.80;8.33;;;13.20;99.90;;;;;;5475387;26;20447;-62
2024/04/13 05:00:23;;;;;;;9.93;8.10;;;13.20;99.90;;;;;;5476436;26;20225;-62
2024/04/13 05:02:52;;;;;;;11.80;9.80;;;13.30;99.90;;;;;;5478944;26;20545;-61
2024/04/13 05:05:20;;;;;;;9.23;7.83;;;13.30;99.90;;;;;;5477018;26;20217;-60
2024/04/13 05:07:49;;;;;;;10.63;8.10;;;13.30;99.90;;;;;;5473400;26;20526;-61
2024/04/13 05:10:15;;;;;;;9.40;7.17;;;13.40;99.90;;;;;;5473053;26;20447;-62
2024/04/13 05:12:44;;;;;;;10.63;7.57;;;13.50;99.90;;;;;;5499833;26;20517;-61
2024/04/13 05:15:09;;;;;;;9.70;7.73;;;13.50;99.90;;;;;;5509836;26;20493;-61
2024/04/13 05:17:38;;;;;;;9.70;6.90;;;13.60;99.90;;;;;;5509414;26;20449;-62
2024/04/13 05:20:04;;;;;;;7.33;6.63;;;13.70;99.90;;;;;;5509505;26;20224;-61
2024/04/13 05:22:36;;;;;;;8.03;6.80;;;13.80;99.90;;;;;;5509517;26;20449;-61
2024/04/13 05:25:02;;;;;;;10.93;7.73;;;13.80;99.90;;;;;;5493949;26;20509;-62
2024/04/13 05:27:30;;;;;;;9.73;6.90;;;13.90;99.90;;;;;;5495295;26;20861;-61
2024/04/13 05:29:56;;;;;;;9.47;6.90;;;14.00;99.90;;;;;;5494296;26;20342;-62
2024/04/13 05:32:25;;;;;;;9.87;6.97;;;14.10;99.90;;;;;;5493571;26;20943;-61
2024/04/13 05:34:50;;;;;;;9.20;7.30;;;14.30;99.90;;;;;;5493780;26;20290;-61
2024/04/13 05:37:19;;;;;;;9.23;7.20;;;14.40;99.90;;;;;;5493963;26;20462;-60
2024/04/13 05:39:47;;;;;;;8.00;5.83;;;14.40;99.90;;;;;;5498427;26;20257;-60
2024/04/13 05:42:16;;;;;;;8.40;5.10;;;14.50;99.90;;;;;;5508784;26;20529;-61
2024/04/13 05:44:41;;;;;;;6.70;6.10;;;14.60;99.90;;;;;;5501666;26;20450;-61
2024/04/13 05:47:10;;;;;;;7.37;5.53;;;14.70;99.90;;;;;;5497248;26;20506;-62
2024/04/13 05:49:36;;;;;;;6.90;6.03;;;14.80;99.90;;;;;;5494282;26;20269;-61
2024/04/13 05:52:04;;;;;;;6.53;5.77;;;14.90;99.90;;;;;;5493884;26;20591;-61
2024/04/13 05:54:30;;;;;;;9.10;5.80;;;15.00;99.90;;;;;;5494056;26;20309;-61
2024/04/13 05:57:01;;;;;;;6.93;5.63;;;15.10;99.90;;;;;;5494467;26;20442;-61
2024/04/13 05:59:27;;;;;;;5.87;5.27;;;15.30;99.90;;;;;;5494183;26;20443;-62
2024/04/13 06:01:56;;;;;;;7.93;6.30;;;15.40;99.90;;;;;;5494140;26;20454;-61
2024/04/13 06:04:22;;;;;;;7.07;5.50;;;15.50;99.90;;;;;;5493474;26;20253;-60
2024/04/13 06:06:51;;;;;;;6.07;5.50;;;15.60;99.90;;;;;;5492983;26;20506;-62
2024/04/13 06:09:17;;;;;;;9.17;5.30;;;15.70;99.90;;;;;;5492825;26;20551;-61
2024/04/13 06:11:45;;;;;;;5.63;5.10;;;15.80;99.90;;;;;;5492991;26;20552;-61
2024/04/13 06:14:14;;;;;;;8.23;4.77;;;15.90;99.90;;;;;;5492965;26;20248;-61
2024/04/13 06:16:44;;;;;;;6.17;5.40;;;16.10;99.90;;;;;;5493260;26;20959;-62
2024/04/13 06:19:13;;;;;;;6.10;4.93;;;16.20;99.90;;;;;;5493000;26;20498;-61
2024/04/13 06:21:41;;;;;;;9.50;4.93;;;16.20;99.90;;;;;;5493208;26;20517;-62
2024/04/13 06:24:07;;;;;;;7.03;5.63;;;16.30;99.90;;;;;;5493383;26;20940;-63
2024/04/13 06:26:36;;;;;;;7.70;4.43;;;16.30;99.90;;;;;;5492642;26;20442;-61
2024/04/13 06:29:01;;;;;;;6.60;4.90;;;16.40;99.90;;;;;;5492258;26;20443;-61
2024/04/13 06:31:32;;;;;;;7.70;4.73;;;16.50;99.90;;;;;;5492046;26;20787;-61
2024/04/13 06:33:58;;;;;;;8.07;4.83;;;16.50;99.90;;;;;;5492390;26;20281;-61
2024/04/13 06:36:27;;;;;;;6.33;4.97;;;16.70;99.90;;;;;;5490670;26;20443;-62
2024/04/13 06:38:52;;;;;;;7.73;4.93;;;16.70;99.90;;;;;;5492442;26;20363;-61
2024/04/13 06:41:21;;;;;;;5.23;4.73;;;16.80;99.90;;;;;;5492195;26;20955;-62
2024/04/13 06:43:47;;;;;;;6.87;4.50;;;16.80;99.90;;;;;;5491736;26;20671;-60
2024/04/13 06:46:15;;;;;;;6.63;4.43;;;16.80;99.90;;;;;;5492231;26;20540;-61
2024/04/13 06:48:43;;;;;;;5.70;4.87;;;16.90;99.90;;;;;;5492478;26;20457;-61
2024/04/13 06:51:12;;;;;;;7.40;4.60;;;16.90;99.90;;;;;;5492104;26;20791;-61
2024/04/13 06:53:39;;;;;;;6.60;4.43;;;17.00;99.90;;;;;;5492220;26;20473;-61
2024/04/13 06:56:09;;;;;;;9.63;4.90;;;17.10;99.90;;;;;;5493309;26;20454;-62
2024/04/13 06:58:34;;;;;;;7.23;4.83;;;17.10;99.90;;;;;;5496511;26;20446;-61
2024/04/13 07:01:03;;;;;;;7.57;4.37;;;17.30;99.90;;;;;;5498382;26;20517;-61
2024/04/13 07:03:29;;;;;;;5.23;4.67;;;17.30;99.90;;;;;;5498260;26;20257;-61
2024/04/13 07:06:02;;;;;;;4.77;4.27;;;17.30;99.90;;;;;;5499925;26;20889;-61
2024/04/13 07:08:28;;;;;;;8.10;4.90;;;17.30;99.90;;;;;;5500103;26;20476;-63
2024/04/13 07:10:58;;;;;;;5.47;4.00;;;17.30;99.90;;;;;;5498002;26;20501;-62
2024/04/13 07:13:24;;;;;;;6.77;4.57;;;17.40;99.90;;;;;;5492641;26;20454;-62
2024/04/13 07:15:52;;;;;;;6.20;4.07;;;17.50;99.90;;;;;;5491941;26;20526;-61
2024/04/13 07:18:18;;;;;;;8.23;5.07;;;17.60;99.90;;;;;;5492142;26;20458;-61
2024/04/13 07:20:47;;;;;;;8.70;5.37;;;17.60;99.90;;;;;;5491862;26;20905;-62
2024/04/13 07:23:16;;;;;;;8.10;4.07;;;17.70;99.90;;;;;;5491610;26;20268;-61
2024/04/13 07:25:45;;;;;;;6.90;4.37;;;17.80;99.90;;;;;;5491775;26;20454;-61
2024/04/13 07:28:11;;;;;;;5.60;4.33;;;18.00;99.90;;;;;;5492373;26;20573;-61
2024/04/13 07:30:39;;;;;;;6.83;4.60;;;18.10;99.90;;;;;;5500931;26;20462;-61
2024/04/13 07:33:05;;;;;;;5.13;4.50;;;18.20;99.90;;;;;;5501268;26;20286;-61
2024/04/13 07:35:33;;;;;;;6.40;4.83;;;18.20;99.90;;;;;;5495512;26;20952;-61
2024/04/13 07:37:59;;;;;;;7.60;3.90;;;18.20;99.90;;;;;;5492758;26;21019;-61
2024/04/13 07:40:30;;;;;;;6.47;4.50;;;18.20;99.90;;;;;;5492246;26;20559;-62
2024/04/13 07:42:56;;;;;;;5.00;4.50;;;18.30;99.80;;;;;;5491075;26;20652;-61
2024/04/13 07:45:24;;;;;;;4.90;4.30;;;18.30;98.80;;;;;;5490853;26;20454;-61
2024/04/13 07:47:50;;;;;;;6.00;4.43;;;18.20;98.80;;;;;;5490440;26;20514;-61
2024/04/13 07:50:19;;;;;;;7.90;4.77;;;18.30;98.30;;;;;;5491064;26;20564;-61
2024/04/13 07:52:45;;;;;;;7.43;4.33;;;18.30;98.30;;;;;;5490419;26;20213;-61
2024/04/13 07:55:13;;;;;;;7.80;4.00;;;18.50;98.10;;;;;;5490861;26;20465;-62
2024/04/13 07:57:42;;;;;;;10.03;4.40;;;18.60;97.40;;;;;;5491109;26;20213;-61
2024/04/13 08:00:11;;;;;;;6.33;4.00;;;18.70;96.70;;;;;;5490676;26;20918;-61
2024/04/13 08:02:37;;;;;;;7.23;4.47;;;18.70;96.20;;;;;;5490683;26;20438;-61
2024/04/13 08:05:06;;;;;;;5.03;3.93;;;18.80;95.60;;;;;;5490965;26;20899;-62
2024/04/13 08:07:31;;;;;;;6.53;4.50;;;18.80;94.70;;;;;;5495215;26;20254;-61
2024/04/13 08:10:00;;;;;;;5.00;4.10;;;18.90;94.40;;;;;;5495667;26;20446;-61
2024/04/13 08:12:26;;;;;;;5.90;3.80;;;18.90;93.90;;;;;;5492413;26;20354;-62
2024/04/13 08:14:57;;;;;;;6.87;4.47;;;18.90;92.90;;;;;;5491229;26;20542;-61
2024/04/13 08:17:26;;;;;;;5.80;3.70;;;18.90;92.30;;;;;;5492840;26;20450;-61
2024/04/13 08:19:54;;;;;;;3.80;3.30;;;18.90;91.50;;;;;;5490971;26;20454;-61
2024/04/13 08:22:20;;;;;;;5.00;2.93;;;18.90;91.10;;;;;;5492698;26;20592;-61
2024/04/13 08:24:51;;;;;;;3.60;3.20;;;19.10;91.10;;;;;;5493742;26;20482;-61
2024/04/13 08:27:17;;;;;;;5.53;3.23;;;19.30;90.60;;;;;;5497592;26;20446;-61
2024/04/13 08:29:45;;;;;;;6.17;3.60;;;19.60;89.30;;;;;;5495000;26;20449;-61
2024/04/13 08:32:13;;;;;;;4.07;3.47;;;19.70;87.60;;;;;;5496424;26;20278;-61
2024/04/13 08:34:42;;;;;;;5.20;3.77;;;19.80;84.10;;;;;;5496222;26;20462;-60
2024/04/13 08:37:08;;;;;;;6.07;3.83;;;19.80;82.80;;;;;;5495323;26;20556;-60
2024/04/13 08:39:37;;;;;;;4.63;3.30;;;19.70;81.90;;;;;;5494216;26;20446;-61
2024/04/13 08:42:07;;;;;;;4.47;3.20;;;19.70;82.40;;;;;;5492222;26;20446;-59
2024/04/13 08:44:36;;;;;;;5.97;3.03;;;19.70;82.70;;;;;;5491703;26;20528;-61
2024/04/13 08:47:02;;;;;;;7.43;3.07;;;19.80;82.80;;;;;;5492277;26;20858;-58
2024/04/13 08:49:36;;;;;;;7.77;3.50;;;19.90;81.70;;;;;;5491746;26;20513;-61
2024/04/13 08:52:05;;;;;;;6.13;3.13;;;20.00;81.00;;;;;;5490900;26;20445;-61
2024/04/13 08:54:34;;;;;;;4.37;3.37;;;20.20;80.50;;;;;;5491362;26;20505;-61
2024/04/13 08:57:01;;;;;;;4.13;2.90;;;20.30;79.10;;;;;;5491363;26;20450;-61
2024/04/13 08:59:30;;;;;;;5.57;3.33;;;20.40;77.60;;;;;;5492677;26;21027;-61
2024/04/13 09:01:56;;;;;;;4.53;3.00;;;20.40;77.00;;;;;;5494893;26;20891;-61
2024/04/13 09:04:25;;;;;;;4.40;2.87;;;20.40;76.20;;;;;;5494110;26;20466;-62
2024/04/13 09:06:57;;;;;;;4.80;2.40;;;20.50;75.30;;;;;;5494479;26;20216;-62
2024/04/13 09:09:26;;;;;;;4.07;2.40;;;20.50;73.50;;;;;;5493552;26;20449;-62
2024/04/13 09:11:52;;;;;;;5.27;2.80;;;20.60;72.90;;;;;;5493893;26;20517;-62
2024/04/13 09:14:21;;;;;;;4.17;3.07;;;20.60;71.70;;;;;;5493902;26;20470;-61
2024/04/13 09:16:47;;;;;;;4.60;2.20;;;20.70;71.20;;;;;;5493991;26;20438;-61
2024/04/13 09:19:15;;;;;;;3.70;2.40;;;20.70;69.40;;;;;;5493422;26;20446;-61
2024/04/13 09:21:41;;;;;;;3.90;2.17;;;20.80;68.90;;;;;;5493257;26;20597;-62
2024/04/13 09:24:13;;;;;;;4.63;2.43;;;20.80;67.70;;;;;;5493170;26;20465;-61
2024/04/13 09:26:44;;;;;;;2.60;2.10;;;20.80;67.20;;;;;;5493502;26;20442;-61
2024/04/13 09:29:13;;;;;;;4.70;1.87;;;20.80;66.30;;;;;;5493250;26;20982;-61
2024/04/13 09:31:40;;;;;;;3.90;2.00;;;20.90;64.70;;;;;;5494466;26;20491;-61
2024/04/13 09:34:08;;;;;;;2.90;2.50;;;20.90;62.70;;;;;;5494204;26;21048;-61
2024/04/13 09:36:34;;;;;;;3.37;2.30;;;20.90;61.30;;;;;;5494198;26;20554;-62
2024/04/13 09:39:04;;;;;;;4.03;2.27;;;20.90;61.10;;;;;;5494192;26;20461;-62
2024/04/13 09:41:32;;;;;;;2.40;2.20;;;21.00;60.40;;;;;;5494463;26;20220;-62
2024/04/13 09:44:01;;;;;;;2.53;1.80;;;21.00;58.50;;;;;;5499396;26;20514;-62
2024/04/13 09:46:26;;;;;;;3.27;2.20;;;21.00;58.80;;;;;;5506524;26;20446;-61
2024/04/13 09:48:58;;;;;;;5.60;2.47;;;21.10;59.10;;;;;;5505042;26;20541;-63
2024/04/13 09:51:24;;;;;;;2.37;2.10;;;21.20;59.40;;;;;;5495216;26;20286;-65
2024/04/13 09:53:53;;;;;;;5.50;2.67;;;21.30;59.90;;;;;;5494776;26;20462;-63
2024/04/13 09:56:20;;;;;;;3.73;3.10;;;21.30;60.10;;;;;;5494568;26;20517;-61
2024/04/13 09:58:52;;;;;;;5.43;3.23;;;21.40;60.50;;;;;;5495139;26;20897;-62
2024/04/13 10:01:18;;;;;;;3.20;2.50;;;21.40;60.90;;;;;;5497721;26;20446;-61
2024/04/13 10:03:47;;;;;;;5.53;2.40;;;21.50;60.80;;;;;;5502921;26;20527;-61
2024/04/13 10:06:15;;;;;;;3.03;2.20;;;21.50;60.70;;;;;;5502416;26;20252;-61
2024/04/13 10:08:45;;;;;;;2.97;1.93;;;21.50;61.00;;;;;;5499783;26;20473;-61
2024/04/13 10:11:13;;;;;;;4.40;2.70;;;21.50;61.50;;;;;;5496889;26;21037;-61
2024/04/13 10:13:47;;;;;;;4.47;2.80;;;21.50;61.80;;;;;;5498316;26;20779;-61
2024/04/13 10:16:16;;;;;;;3.10;2.43;;;21.60;61.90;;;;;;5499379;26;20615;-61
2024/04/13 10:18:45;;;;;;;4.57;2.80;;;21.70;62.10;;;;;;5498300;26;20446;-61
2024/04/13 10:21:12;;;;;;;5.17;2.90;;;21.80;62.30;;;;;;5496466;26;20596;-61
2024/04/13 10:23:42;;;;;;;5.17;2.60;;;22.00;61.70;;;;;;5494174;26;20563;-62
2024/04/13 10:26:08;;;;;;;3.30;2.30;;;22.00;62.00;;;;;;5493568;26;20500;-62
2024/04/13 10:28:37;;;;;;;4.60;2.47;;;22.00;62.50;;;;;;5494418;26;20446;-63
2024/04/13 10:31:03;;;;;;;7.30;2.97;;;22.10;62.90;;;;;;5494960;26;20443;-62
2024/04/13 10:33:36;;;;;;;3.77;2.70;;;22.20;63.00;;;;;;5493214;26;20470;-62
2024/04/13 10:36:03;;;;;;;4.17;3.13;;;22.30;63.40;;;;;;5493335;26;20438;-63
2024/04/13 10:38:33;;;;;;;3.30;2.90;;;22.40;63.60;;;;;;5492995;26;20536;-62
2024/04/13 10:41:01;;;;;;;3.10;2.30;;;22.40;63.60;;;;;;5494921;26;20499;-61
2024/04/13 10:43:30;;;;;;;4.03;2.80;;;22.40;63.80;;;;;;5496670;26;20450;-61
2024/04/13 10:45:57;;;;;;;3.00;2.70;;;22.40;63.80;;;;;;5496555;26;20506;-62
2024/04/13 10:48:26;;;;;;;5.53;2.47;;;22.40;64.20;;;;;;5491209;26;20454;-62
2024/04/13 10:50:56;;;;;;;3.80;3.03;;;22.50;64.40;;;;;;5491215;26;21079;-62
2024/04/13 10:53:27;;;;;;;4.23;2.87;;;22.60;64.20;;;;;;5490321;26;20474;-61
2024/04/13 10:55:55;;;;;;;2.83;2.40;;;22.80;64.10;;;;;;5491023;26;20622;-61
2024/04/13 10:58:30;;;;;;;4.17;3.17;;;22.90;63.90;;;;;;5491075;26;20493;-61
2024/04/13 11:00:57;;;;;;;3.00;2.50;;;23.00;63.70;;;;;;5490870;26;20589;-62
2024/04/13 11:03:27;;;;;;;3.73;2.80;;;23.00;63.60;;;;;;5491133;26;20519;-62
2024/04/13 11:05:56;;;;;;;3.53;2.50;;;23.10;63.60;;;;;;5490668;26;20450;-62
2024/04/13 11:08:25;;;;;;;3.80;2.67;;;23.20;63.30;;;;;;5490436;26;20461;-61
2024/04/13 11:10:53;;;;;;;3.33;2.40;;;23.20;63.00;;;;;;5491024;26;20975;-61
2024/04/13 11:13:23;;;;;;;2.67;2.43;;;23.20;62.70;;;;;;5490636;26;20515;-62
2024/04/13 11:15:51;;;;;;;4.40;2.27;;;23.30;62.90;;;;;;5491018;26;20573;-61
2024/04/13 11:18:17;;;;;;;7.03;3.70;;;23.30;62.20;;;;;;5491114;26;20856;-62
2024/04/13 11:20:50;;;;;;;3.10;2.70;;;23.30;62.10;;;;;;5491103;26;20983;-61
2024/04/13 11:23:19;;;;;;;3.90;3.03;;;23.30;62.20;;;;;;5491953;26;20466;-62
2024/04/13 11:25:48;;;;;;;4.90;2.40;;;23.20;61.80;;;;;;5491983;26;20501;-61
2024/04/13 11:28:14;;;;;;;7.03;2.97;;;23.10;62.00;;;;;;5492546;26;20462;-62
2024/04/13 11:30:43;;;;;;;3.83;2.87;;;23.10;62.50;;;;;;5491630;26;20446;-61
2024/04/13 11:33:09;;;;;;;3.40;2.30;;;23.00;62.60;;;;;;5492142;26;20474;-62
2024/04/13 11:35:37;;;;;;;2.87;2.40;;;23.00;62.50;;;;;;5491865;26;20498;-62
2024/04/13 11:38:04;;;;;;;3.20;1.80;;;23.00;62.80;;;;;;5492645;26;20450;-62
2024/04/13 11:40:36;;;;;;;2.43;2.10;;;23.00;62.50;;;;;;5492917;26;20527;-61
2024/04/13 11:43:02;;;;;;;4.40;1.80;;;23.10;62.60;;;;;;5491684;26;20466;-62
2024/04/13 11:45:31;;;;;;;4.00;1.70;;;23.30;62.50;;;;;;5492118;26;20454;-61
2024/04/13 11:47:57;;;;;;;4.53;2.30;;;23.60;62.10;;;;;;5491236;26;20814;-61
2024/04/13 11:50:26;;;;;;;3.23;2.50;;;23.90;61.10;;;;;;5491142;26;20461;-61
2024/04/13 11:52:53;;;;;;;2.63;2.30;;;24.20;59.80;;;;;;5491167;26;20743;-62
2024/04/13 11:55:24;;;;;;;2.20;2.00;;;24.10;59.20;;;;;;5490835;26;20494;-61
2024/04/13 11:57:52;;;;;;;5.40;2.20;;;24.10;58.90;;;;;;5489874;26;20458;-60
2024/04/13 12:00:21;;;;;;;4.10;2.87;;;24.00;59.10;;;;;;5490852;26;20450;-62
2024/04/13 12:02:47;;;;;;;7.00;2.47;;;24.20;59.10;;;;;;5490733;26;20557;-61
2024/04/13 12:05:16;;;;;;;3.30;2.70;;;24.40;58.30;;;;;;5490518;26;20883;-61
2024/04/13 12:07:43;;;;;;;4.90;2.13;;;24.50;58.10;;;;;;5490761;26;20919;-61
2024/04/13 12:10:11;;;;;;;3.23;2.50;;;24.40;57.60;;;;;;5490762;26;20972;-63
2024/04/13 12:12:37;;;;;;;3.50;2.50;;;24.40;57.80;;;;;;5489819;26;21038;-61
2024/04/13 12:15:09;;;;;;;2.90;2.43;;;24.40;57.50;;;;;;5491219;26;20702;-62
2024/04/13 12:17:35;;;;;;;3.20;2.77;;;24.40;57.60;;;;;;5491503;26;20213;-61
2024/04/13 12:20:05;;;;;;;5.57;2.50;;;24.40;57.50;;;;;;5491808;26;20501;-61
2024/04/13 12:22:31;;;;;;;2.50;2.30;;;24.20;57.30;;;;;;5490688;26;20435;-61
2024/04/13 12:24:59;;;;;;;3.87;3.37;;;24.00;57.50;;;;;;5491117;26;20827;-62
2024/04/13 12:27:25;;;;;;;4.83;2.27;;;23.90;57.90;;;;;;5490787;26;20384;-61
2024/04/13 12:29:53;;;;;;;5.50;2.77;;;23.80;57.90;;;;;;5489007;26;21028;-61
2024/04/13 12:32:22;;;;;;;4.80;2.70;;;23.90;58.10;;;;;;5489876;26;20247;-62
2024/04/13 12:34:50;;;;;;;2.70;2.50;;;24.00;57.60;;;;;;5492926;26;20537;-60
2024/04/13 12:37:16;;;;;;;4.73;3.23;;;24.00;57.60;;;;;;5496698;26;20591;-62
2024/04/13 12:39:46;;;;;;;10.93;3.23;;;23.90;57.60;;;;;;5497969;26;20442;-62
2024/04/13 12:42:12;;;;;;;4.00;2.43;;;23.90;57.40;;;;;;5501724;26;20446;-61
2024/04/13 12:44:40;;;;;;;3.80;2.47;;;23.90;57.80;;;;;;5497261;26;21022;-62
2024/04/13 12:47:06;;;;;;;3.03;2.27;;;23.90;57.80;;;;;;5497090;26;20213;-61
2024/04/13 12:49:37;;;;;;;4.17;2.33;;;24.00;57.70;;;;;;5493120;26;20611;-63